Time;durP1;ratioP1;P1;durP2;ratioP2;P2;SDS_P1;SDS_P2;PMS_P1;PMS_P2;Temp;Humidity;BMP_temperature;BMP_pressure;BME280_temperature;BME280_humidity;BME280_pressure;Samples;Min_cycle;Max_cycle;Signal;HPM_P1;HPM_P2
2022/03/23 00:01:29;;;;;;;17.83;12.07;;;8.90;96.30;;;;;;4903277;29;20395;-91
2022/03/23 00:03:55;;;;;;;19.45;12.52;;;8.90;96.40;;;;;;4920039;29;20040;-90
2022/03/23 00:06:22;;;;;;;19.83;13.77;;;8.90;96.50;;;;;;4903383;29;20475;-89
2022/03/23 00:08:49;;;;;;;18.75;13.25;;;8.80;96.60;;;;;;4907382;29;20681;-91
2022/03/23 00:11:15;;;;;;;18.10;12.85;;;8.70;96.80;;;;;;4909601;29;20028;-90
2022/03/23 00:13:41;;;;;;;17.20;12.45;;;8.70;96.90;;;;;;4903532;29;20394;-90
2022/03/23 00:16:06;;;;;;;17.45;12.07;;;8.70;97.00;;;;;;4903323;29;20517;-90
2022/03/23 00:18:32;;;;;;;17.35;12.60;;;8.60;97.40;;;;;;4903125;29;20111;-89
2022/03/23 00:20:58;;;;;;;19.48;12.23;;;8.60;97.30;;;;;;4903274;29;20150;-89
2022/03/23 00:23:24;;;;;;;17.88;11.82;;;8.60;97.50;;;;;;4919878;29;20435;-91
2022/03/23 00:25:49;;;;;;;17.77;11.18;;;8.60;97.60;;;;;;4902878;29;20095;-91
2022/03/23 00:28:15;;;;;;;14.50;10.82;;;8.50;97.70;;;;;;4901624;29;20082;-91
2022/03/23 00:30:41;;;;;;;16.73;12.25;;;8.50;97.80;;;;;;4902685;29;20517;-91
2022/03/23 00:33:07;;;;;;;17.95;12.75;;;8.50;97.90;;;;;;4902385;29;20036;-91
2022/03/23 00:35:32;;;;;;;17.80;12.10;;;8.50;98.50;;;;;;4903139;29;20083;-90
2022/03/23 00:37:59;;;;;;;15.15;11.18;;;8.50;98.40;;;;;;4902528;29;20028;-91
2022/03/23 00:40:25;;;;;;;19.77;12.10;;;8.50;98.30;;;;;;4919268;29;20024;-91
2022/03/23 00:42:51;;;;;;;17.92;12.15;;;8.50;98.30;;;;;;4902312;29;20036;-90
2022/03/23 00:45:18;;;;;;;19.15;11.30;;;8.50;98.40;;;;;;4902577;29;20062;-90
2022/03/23 00:47:45;;;;;;;17.83;12.40;;;8.50;98.50;;;;;;4902834;29;20035;-90
2022/03/23 00:50:11;;;;;;;16.20;11.00;;;8.40;98.60;;;;;;4902614;29;20040;-89
2022/03/23 00:52:37;;;;;;;18.23;11.23;;;8.30;98.70;;;;;;4902350;29;20494;-90
2022/03/23 00:55:08;;;;;;;18.65;11.38;;;8.30;98.80;;;;;;4901452;29;20070;-91
2022/03/23 00:57:34;;;;;;;16.45;11.27;;;8.30;98.90;;;;;;4901636;29;20056;-89
2022/03/23 00:59:59;;;;;;;16.23;10.70;;;8.30;99.00;;;;;;4918855;29;20075;-89
2022/03/23 01:02:28;;;;;;;15.73;11.35;;;8.30;99.10;;;;;;4918835;29;20079;-89
2022/03/23 01:04:53;;;;;;;15.77;10.98;;;8.20;99.20;;;;;;4918774;29;20032;-90
2022/03/23 01:07:19;;;;;;;16.83;11.52;;;8.10;99.30;;;;;;4917689;29;20032;-89
2022/03/23 01:09:44;;;;;;;17.95;11.25;;;8.10;99.40;;;;;;4902414;29;20044;-90
2022/03/23 01:12:10;;;;;;;15.98;10.65;;;8.00;99.60;;;;;;4901804;29;20488;-89
2022/03/23 01:14:36;;;;;;;18.23;10.65;;;8.00;99.70;;;;;;4901907;29;20062;-89
2022/03/23 01:17:02;;;;;;;17.90;10.50;;;7.90;99.90;;;;;;4901881;29;20427;-89
2022/03/23 01:19:27;;;;;;;15.30;10.80;;;7.80;99.90;;;;;;4901697;29;20399;-89
2022/03/23 01:21:54;;;;;;;17.50;11.20;;;7.80;99.90;;;;;;4917511;29;20032;-88
2022/03/23 01:24:20;;;;;;;17.58;11.20;;;7.80;99.90;;;;;;4918366;29;20047;-89
2022/03/23 01:26:46;;;;;;;17.33;11.38;;;7.70;99.90;;;;;;4918487;29;20040;-90
2022/03/23 01:29:11;;;;;;;16.58;10.80;;;7.70;99.90;;;;;;4902022;29;20122;-90
2022/03/23 01:31:37;;;;;;;15.50;11.02;;;7.70;99.90;;;;;;4918623;29;20088;-90
2022/03/23 01:34:03;;;;;;;16.67;10.88;;;7.70;99.90;;;;;;4902038;29;20123;-90
2022/03/23 01:36:30;;;;;;;15.25;11.05;;;7.70;99.90;;;;;;4902525;29;20471;-90
2022/03/23 01:38:57;;;;;;;16.08;10.82;;;7.60;99.90;;;;;;4903018;29;20036;-90
2022/03/23 01:41:23;;;;;;;15.10;10.73;;;7.60;99.90;;;;;;4918496;28;20047;-89
2022/03/23 01:43:49;;;;;;;15.88;11.07;;;7.60;99.90;;;;;;4905735;29;20043;-90
2022/03/23 01:46:17;;;;;;;14.82;10.68;;;7.50;99.90;;;;;;4910886;29;20020;-89
2022/03/23 01:48:44;;;;;;;16.95;10.82;;;7.50;99.90;;;;;;4925124;29;20043;-90
2022/03/23 01:51:10;;;;;;;18.00;10.85;;;7.50;99.90;;;;;;4924589;28;20020;-91
2022/03/23 01:53:36;;;;;;;16.50;11.25;;;7.50;99.90;;;;;;4940931;29;20036;-91
2022/03/23 01:56:02;;;;;;;16.38;11.82;;;7.40;99.90;;;;;;4925716;29;20056;-90
2022/03/23 01:58:27;;;;;;;16.17;11.73;;;7.40;99.90;;;;;;4925270;28;20043;-88
2022/03/23 02:00:53;;;;;;;15.93;11.10;;;7.40;99.90;;;;;;4941741;28;20044;-90
2022/03/23 02:03:19;;;;;;;18.13;11.80;;;7.30;99.90;;;;;;4925348;29;20020;-90
2022/03/23 02:05:44;;;;;;;17.00;11.02;;;7.30;99.90;;;;;;4924669;29;20051;-89
2022/03/23 02:08:11;;;;;;;14.70;10.23;;;7.30;99.90;;;;;;4924785;29;20028;-89
2022/03/23 02:10:37;;;;;;;18.42;11.32;;;7.40;99.90;;;;;;4924447;29;20032;-90
2022/03/23 02:13:03;;;;;;;16.50;10.70;;;7.40;99.90;;;;;;4923719;29;20033;-90
2022/03/23 02:15:29;;;;;;;17.10;11.45;;;7.40;99.90;;;;;;4912716;29;20096;-89
2022/03/23 02:17:56;;;;;;;15.60;9.57;;;7.40;99.90;;;;;;4923991;29;20040;-89
2022/03/23 02:20:28;;;;;;;12.85;9.43;;;7.50;99.90;;;;;;4915117;29;20024;-89
2022/03/23 02:22:54;;;;;;;15.60;10.68;;;7.50;99.90;;;;;;4902701;29;20036;-89
2022/03/23 02:25:22;;;;;;;13.57;9.68;;;7.60;99.90;;;;;;4902774;29;20032;-88
2022/03/23 02:27:50;;;;;;;17.65;11.23;;;7.60;99.90;;;;;;4902500;29;20069;-88
2022/03/23 02:30:16;;;;;;;15.50;10.70;;;7.50;99.90;;;;;;4902854;29;20087;-89
2022/03/23 02:32:41;;;;;;;15.13;9.82;;;7.50;99.90;;;;;;4902482;29;20482;-88
2022/03/23 02:35:08;;;;;;;15.18;10.07;;;7.50;99.90;;;;;;4902420;29;20051;-90
2022/03/23 02:37:37;;;;;;;14.73;10.07;;;7.50;99.90;;;;;;4902383;29;20047;-89
2022/03/23 02:40:04;;;;;;;16.77;10.50;;;7.50;99.90;;;;;;4919097;29;20111;-89
2022/03/23 02:42:29;;;;;;;15.48;10.52;;;7.50;99.90;;;;;;4902581;29;20084;-89
2022/03/23 02:44:55;;;;;;;16.02;10.00;;;7.50;99.90;;;;;;4902359;29;20487;-89
2022/03/23 02:47:21;;;;;;;16.83;10.63;;;7.40;99.90;;;;;;4902223;29;20376;-88
2022/03/23 02:49:47;;;;;;;15.18;9.77;;;7.40;99.90;;;;;;4901598;29;20047;-89
2022/03/23 02:52:12;;;;;;;15.07;10.18;;;7.40;99.90;;;;;;4921245;29;20041;-89
2022/03/23 03:03:30;;;;;;;15.50;10.68;;;7.20;99.90;;;;;;4921723;29;20035;-88
2022/03/23 03:05:56;;;;;;;16.27;10.18;;;7.10;99.90;;;;;;4920913;29;20499;-88
2022/03/23 03:11:07;;;;;;;15.30;10.75;;;7.00;99.90;;;;;;4921290;29;20562;-88
2022/03/23 03:13:33;;;;;;;15.48;10.52;;;7.00;99.90;;;;;;4921220;29;20029;-89
2022/03/23 03:16:02;;;;;;;14.55;10.02;;;7.00;99.90;;;;;;4904370;29;20052;-89
2022/03/23 03:18:32;;;;;;;15.88;10.32;;;6.90;99.90;;;;;;4904042;29;20036;-89
2022/03/23 03:21:00;;;;;;;17.45;10.75;;;6.90;99.90;;;;;;4904132;29;20463;-89
2022/03/23 03:23:30;;;;;;;14.98;9.70;;;6.90;99.90;;;;;;4920513;29;20032;-89
2022/03/23 03:25:56;;;;;;;15.13;10.27;;;6.90;99.90;;;;;;4904764;29;20104;-88
2022/03/23 03:28:23;;;;;;;15.85;10.68;;;6.80;99.90;;;;;;4921228;29;20032;-88
2022/03/23 03:30:48;;;;;;;13.75;10.18;;;6.80;99.90;;;;;;4903890;29;20047;-87
2022/03/23 03:33:14;;;;;;;14.93;9.95;;;6.70;99.90;;;;;;4903334;29;20495;-88
2022/03/23 03:35:40;;;;;;;15.48;10.35;;;6.70;99.90;;;;;;4903827;29;20535;-89
2022/03/23 03:38:06;;;;;;;17.77;10.30;;;6.70;99.90;;;;;;4903448;29;20036;-90
2022/03/23 03:40:31;;;;;;;18.10;11.00;;;6.70;99.90;;;;;;4920663;29;20033;-88
2022/03/23 03:42:57;;;;;;;15.27;10.05;;;6.70;99.90;;;;;;4920213;29;20705;-88
2022/03/23 03:45:22;;;;;;;16.63;9.82;;;6.60;99.90;;;;;;4919447;29;20059;-87
2022/03/23 03:47:48;;;;;;;16.73;10.68;;;6.60;99.90;;;;;;4920477;29;20039;-90
2022/03/23 03:50:14;;;;;;;15.52;11.45;;;6.60;99.90;;;;;;4904044;29;20131;-89
2022/03/23 03:52:39;;;;;;;15.50;10.40;;;6.60;99.90;;;;;;4920911;29;20063;-88
2022/03/23 03:55:05;;;;;;;16.55;10.95;;;6.60;99.90;;;;;;4921664;29;20042;-90
2022/03/23 03:57:31;;;;;;;13.50;10.07;;;6.50;99.90;;;;;;4921875;29;20039;-89
2022/03/23 03:59:57;;;;;;;15.05;10.63;;;6.50;99.90;;;;;;4907644;29;20044;-89
2022/03/23 04:02:23;;;;;;;15.77;10.75;;;6.40;99.90;;;;;;4905482;29;20040;-89
2022/03/23 04:04:49;;;;;;;15.88;10.82;;;6.40;99.90;;;;;;4927385;29;20160;-89
2022/03/23 04:07:15;;;;;;;17.05;10.98;;;6.40;99.90;;;;;;4910338;29;20058;-90
2022/03/23 04:09:40;;;;;;;13.90;10.18;;;6.30;99.90;;;;;;4912457;29;20051;-88
2022/03/23 04:12:06;;;;;;;16.58;9.98;;;6.30;99.90;;;;;;4916336;29;20036;-88
2022/03/23 04:14:32;;;;;;;15.57;9.98;;;6.30;99.90;;;;;;4912230;29;20111;-89
2022/03/23 04:16:58;;;;;;;18.00;10.70;;;6.20;99.90;;;;;;4909189;29;20032;-88
2022/03/23 04:19:23;;;;;;;14.13;9.57;;;6.20;99.90;;;;;;4913662;29;20036;-88
2022/03/23 04:21:49;;;;;;;16.13;10.48;;;6.20;99.90;;;;;;4913750;29;20063;-87
2022/03/23 04:24:15;;;;;;;17.00;11.65;;;6.10;99.90;;;;;;4930086;29;20040;-87
2022/03/23 04:26:40;;;;;;;16.30;10.50;;;6.10;99.90;;;;;;4913362;29;20032;-87
2022/03/23 04:29:07;;;;;;;17.63;11.10;;;6.10;99.90;;;;;;4915367;29;20398;-88
2022/03/23 04:31:32;;;;;;;15.32;10.38;;;6.10;99.90;;;;;;4924364;29;20020;-89
2022/03/23 04:33:58;;;;;;;17.60;10.55;;;6.00;99.90;;;;;;4906814;29;20028;-90
2022/03/23 04:36:24;;;;;;;16.42;11.23;;;6.00;99.90;;;;;;4908609;29;20137;-89
2022/03/23 04:38:49;;;;;;;16.42;10.82;;;6.00;99.90;;;;;;4909193;29;20046;-88
2022/03/23 04:41:15;;;;;;;15.40;10.10;;;6.00;99.90;;;;;;4925801;29;20502;-89
2022/03/23 04:43:41;;;;;;;15.73;10.27;;;6.00;99.90;;;;;;4906199;29;20403;-90
2022/03/23 04:46:06;;;;;;;17.20;11.63;;;6.00;99.90;;;;;;4911387;29;20435;-88
2022/03/23 04:48:33;;;;;;;15.90;10.55;;;6.00;99.90;;;;;;4906834;29;20036;-88
2022/03/23 04:50:59;;;;;;;16.65;11.27;;;6.00;99.90;;;;;;4907256;29;20036;-89
2022/03/23 04:53:28;;;;;;;14.82;10.35;;;6.00;99.90;;;;;;4906574;29;20035;-89
2022/03/23 04:55:53;;;;;;;15.40;10.70;;;6.00;99.90;;;;;;4907020;29;20522;-89
2022/03/23 04:58:19;;;;;;;16.27;10.38;;;6.00;99.90;;;;;;4909050;29;20032;-88
2022/03/23 05:00:45;;;;;;;16.05;10.70;;;6.00;99.90;;;;;;4909051;29;20036;-89
2022/03/23 05:03:13;;;;;;;15.02;10.15;;;6.10;99.90;;;;;;4912575;29;20443;-89
2022/03/23 05:05:39;;;;;;;14.77;9.82;;;6.10;99.90;;;;;;4916157;29;20095;-89
2022/03/23 05:08:05;;;;;;;15.35;10.45;;;6.10;99.90;;;;;;4914092;29;20020;-89
2022/03/23 05:10:31;;;;;;;17.13;10.65;;;6.10;99.90;;;;;;4918125;29;20059;-88
2022/03/23 05:12:57;;;;;;;14.73;10.55;;;6.00;99.90;;;;;;4917225;29;20501;-88
2022/03/23 05:15:23;;;;;;;15.02;10.43;;;6.00;99.90;;;;;;4905520;29;20076;-89
2022/03/23 05:17:48;;;;;;;16.10;10.70;;;6.00;99.90;;;;;;4903180;29;20402;-89
2022/03/23 05:20:18;;;;;;;18.52;11.43;;;6.00;99.90;;;;;;4902792;29;20047;-89
2022/03/23 05:22:44;;;;;;;14.40;10.23;;;6.00;99.90;;;;;;4918517;29;20551;-90
2022/03/23 05:25:10;;;;;;;16.50;11.07;;;6.00;99.90;;;;;;4901923;29;20028;-89
2022/03/23 05:27:38;;;;;;;16.45;10.55;;;6.00;99.90;;;;;;4902090;29;20044;-90
2022/03/23 05:30:07;;;;;;;16.50;11.18;;;6.00;99.90;;;;;;4917651;29;20499;-89
2022/03/23 05:32:34;;;;;;;17.70;10.38;;;5.90;99.90;;;;;;4902070;29;20091;-91
2022/03/23 05:34:59;;;;;;;17.08;11.23;;;5.90;99.90;;;;;;4902477;29;20060;-89
2022/03/23 05:37:28;;;;;;;14.80;10.15;;;5.90;99.90;;;;;;4902193;29;20084;-89
2022/03/23 05:39:54;;;;;;;16.30;11.10;;;5.90;99.90;;;;;;4917953;29;20487;-88
2022/03/23 05:42:19;;;;;;;16.30;10.55;;;5.90;99.90;;;;;;4917924;29;20040;-89
2022/03/23 05:44:45;;;;;;;15.57;9.93;;;6.00;99.90;;;;;;4901326;29;20040;-87
2022/03/23 05:47:12;;;;;;;15.70;10.38;;;5.90;99.90;;;;;;4902409;29;20032;-86
2022/03/23 05:49:38;;;;;;;18.15;10.73;;;5.90;99.90;;;;;;4923808;29;20047;-89
2022/03/23 05:52:05;;;;;;;15.70;10.68;;;5.90;99.90;;;;;;4898068;29;20057;-88
2022/03/23 05:54:31;;;;;;;18.95;11.65;;;5.90;99.90;;;;;;4891759;29;20044;-90
2022/03/23 05:56:57;;;;;;;16.40;10.80;;;5.90;99.90;;;;;;4890401;29;20052;-88
2022/03/23 05:59:23;;;;;;;17.50;11.23;;;5.90;99.90;;;;;;4894976;29;20088;-87
2022/03/23 06:01:49;;;;;;;16.58;10.70;;;5.90;99.90;;;;;;4896073;29;20029;-87
2022/03/23 06:04:14;;;;;;;19.05;11.57;;;5.90;99.90;;;;;;4879556;29;20107;-87
2022/03/23 06:06:40;;;;;;;18.48;11.52;;;5.90;99.90;;;;;;4896499;29;20060;-87
2022/03/23 06:09:06;;;;;;;16.60;10.98;;;5.90;99.90;;;;;;4900597;29;20052;-87
2022/03/23 06:11:32;;;;;;;20.73;11.52;;;5.90;99.90;;;;;;4905489;29;20068;-90
2022/03/23 06:13:58;;;;;;;17.92;10.82;;;6.00;99.90;;;;;;4904397;29;20111;-90
2022/03/23 06:16:24;;;;;;;17.23;10.73;;;6.00;99.90;;;;;;4895179;29;20072;-90
2022/03/23 06:18:49;;;;;;;16.40;10.68;;;6.00;99.90;;;;;;4892929;29;20055;-88
2022/03/23 06:21:15;;;;;;;16.40;10.98;;;6.10;99.90;;;;;;4898252;29;20047;-88
2022/03/23 06:23:42;;;;;;;17.13;11.13;;;6.10;99.90;;;;;;4898660;29;20622;-89
2022/03/23 06:26:07;;;;;;;17.05;11.90;;;6.20;99.90;;;;;;4899897;29;20052;-92
2022/03/23 06:28:34;;;;;;;17.42;11.55;;;6.20;99.90;;;;;;4904747;29;20115;-86
2022/03/23 06:30:59;;;;;;;17.77;11.55;;;6.30;99.90;;;;;;4911263;29;20036;-87
2022/03/23 06:33:25;;;;;;;19.45;12.25;;;6.30;99.90;;;;;;4895911;29;20040;-85
2022/03/23 06:35:51;;;;;;;15.85;10.77;;;6.40;99.90;;;;;;4911497;29;20029;-86
2022/03/23 06:38:17;;;;;;;18.60;11.80;;;6.40;99.90;;;;;;4910915;29;20177;-87
2022/03/23 06:40:43;;;;;;;17.65;11.88;;;6.60;99.90;;;;;;4908622;29;20044;-86
2022/03/23 06:43:09;;;;;;;18.05;12.02;;;6.60;99.90;;;;;;4909398;29;20432;-85
2022/03/23 06:45:35;;;;;;;18.65;12.10;;;6.70;99.90;;;;;;4891854;29;20112;-88
2022/03/23 06:48:02;;;;;;;18.88;12.45;;;6.70;99.90;;;;;;4899114;29;20664;-88
2022/03/23 06:50:27;;;;;;;19.48;12.20;;;6.90;99.90;;;;;;4898404;29;20052;-88
2022/03/23 06:52:53;;;;;;;18.42;11.85;;;7.00;99.90;;;;;;4916396;29;20028;-92
2022/03/23 06:55:19;;;;;;;19.05;12.15;;;7.10;99.90;;;;;;4907423;29;20047;-89
2022/03/23 06:57:44;;;;;;;19.33;11.82;;;7.20;99.90;;;;;;4906372;29;20036;-90
2022/03/23 07:00:13;;;;;;;19.75;11.55;;;7.20;99.90;;;;;;4910497;29;20039;-89
2022/03/23 07:02:43;;;;;;;19.42;12.40;;;7.30;99.90;;;;;;4911858;29;20396;-89
2022/03/23 07:05:11;;;;;;;19.42;12.35;;;7.40;99.90;;;;;;4903498;29;20064;-90
2022/03/23 07:07:37;;;;;;;18.02;12.68;;;7.50;99.90;;;;;;4902321;29;20037;-91
2022/03/23 07:10:05;;;;;;;21.17;13.35;;;7.60;99.90;;;;;;4903934;29;20043;-90
2022/03/23 07:12:31;;;;;;;19.40;13.23;;;7.60;99.90;;;;;;4901420;29;20112;-90
2022/03/23 07:14:56;;;;;;;20.77;13.35;;;7.80;99.90;;;;;;4901264;29;20044;-89
2022/03/23 07:17:23;;;;;;;20.73;13.48;;;7.80;99.90;;;;;;4902714;29;20584;-90
2022/03/23 07:19:49;;;;;;;21.00;13.60;;;8.00;99.90;;;;;;4901444;29;20396;-90
2022/03/23 07:22:15;;;;;;;21.70;13.77;;;8.00;99.90;;;;;;4901643;29;20033;-90
2022/03/23 07:24:42;;;;;;;23.25;14.27;;;8.10;99.90;;;;;;4901266;29;20103;-90
2022/03/23 07:27:08;;;;;;;21.15;14.10;;;8.30;99.90;;;;;;4901364;29;20033;-89
2022/03/23 07:29:35;;;;;;;21.60;13.38;;;8.40;99.90;;;;;;4900902;29;20048;-90
2022/03/23 07:32:00;;;;;;;22.70;13.38;;;8.50;99.90;;;;;;4885444;29;20036;-89
2022/03/23 07:34:26;;;;;;;20.60;13.23;;;8.60;99.90;;;;;;4901254;29;20036;-90
2022/03/23 07:36:52;;;;;;;22.95;13.73;;;8.70;99.90;;;;;;4884791;29;20041;-89
2022/03/23 07:39:21;;;;;;;19.60;12.82;;;8.80;99.90;;;;;;4901128;29;20056;-89
2022/03/23 07:42:05;;;;;;;21.30;13.85;;;8.90;99.90;;;;;;4901292;29;20037;-90
2022/03/23 07:44:34;;;;;;;19.05;13.07;;;9.00;99.90;;;;;;4902471;29;20068;-90
2022/03/23 07:47:07;;;;;;;21.05;13.63;;;9.00;99.90;;;;;;4885420;29;20037;-91
2022/03/23 07:49:32;;;;;;;20.63;13.65;;;9.10;99.90;;;;;;4900587;29;20124;-90
2022/03/23 07:52:02;;;;;;;20.83;13.90;;;9.10;99.90;;;;;;4900686;29;20432;-90
2022/03/23 07:54:28;;;;;;;21.40;13.95;;;9.20;99.90;;;;;;4885077;29;20037;-89
2022/03/23 07:56:53;;;;;;;20.85;14.38;;;9.20;99.90;;;;;;4900160;29;20132;-89
2022/03/23 07:59:19;;;;;;;22.50;13.38;;;9.30;99.90;;;;;;4884526;29;20076;-91
2022/03/23 08:01:44;;;;;;;21.33;14.60;;;9.40;99.90;;;;;;4899882;29;20109;-90
2022/03/23 08:04:11;;;;;;;24.33;15.20;;;9.40;99.90;;;;;;4900326;29;20065;-90
2022/03/23 08:06:37;;;;;;;21.90;15.82;;;9.50;99.90;;;;;;4900520;29;20033;-89
2022/03/23 08:09:03;;;;;;;19.80;14.13;;;9.60;99.90;;;;;;4900180;29;20036;-89
2022/03/23 08:11:29;;;;;;;20.05;13.77;;;9.70;99.90;;;;;;4884642;29;20024;-89
2022/03/23 08:13:56;;;;;;;26.85;19.05;;;9.70;99.90;;;;;;4900379;29;20680;-89
2022/03/23 08:16:21;;;;;;;29.48;17.77;;;9.90;99.90;;;;;;4900116;29;20029;-89
2022/03/23 08:18:47;;;;;;;24.52;17.23;;;10.00;99.90;;;;;;4900354;29;20044;-89
2022/03/23 08:21:13;;;;;;;23.50;16.45;;;10.10;99.90;;;;;;4899799;29;20028;-89
2022/03/23 08:23:40;;;;;;;21.92;15.43;;;10.20;99.90;;;;;;4900124;29;20119;-90
2022/03/23 08:26:09;;;;;;;21.05;14.82;;;10.20;99.90;;;;;;4900095;29;20048;-89
2022/03/23 08:28:35;;;;;;;24.00;14.70;;;10.40;99.90;;;;;;4899920;29;20044;-90
2022/03/23 08:31:01;;;;;;;21.33;14.90;;;10.40;99.90;;;;;;4900745;29;20043;-93
2022/03/23 08:33:32;;;;;;;22.67;15.82;;;10.50;99.90;;;;;;4899618;29;20407;-91
2022/03/23 08:35:59;;;;;;;19.33;14.18;;;10.60;99.90;;;;;;4884434;29;20499;-89
2022/03/23 08:38:24;;;;;;;21.98;14.70;;;10.70;99.90;;;;;;4899762;29;20099;-90
2022/03/23 08:40:50;;;;;;;21.58;15.25;;;10.80;99.90;;;;;;4899899;29;20040;-89
2022/03/23 08:43:16;;;;;;;22.13;15.50;;;10.80;99.90;;;;;;4900185;29;20033;-90
2022/03/23 08:45:42;;;;;;;23.02;15.25;;;10.90;99.90;;;;;;4900288;29;20503;-89
2022/03/23 08:48:09;;;;;;;25.92;16.95;;;11.00;99.80;;;;;;4898774;29;20044;-88
2022/03/23 08:50:40;;;;;;;22.65;14.80;;;11.10;99.60;;;;;;4903391;29;20567;-89
2022/03/23 08:53:07;;;;;;;23.92;15.43;;;11.20;99.50;;;;;;4889052;29;20039;-89
2022/03/23 08:55:32;;;;;;;19.90;13.90;;;11.30;99.50;;;;;;4892488;29;20036;-88
2022/03/23 08:57:58;;;;;;;22.13;16.20;;;11.30;99.40;;;;;;4899584;29;20044;-88
2022/03/23 09:00:24;;;;;;;22.23;15.80;;;11.40;99.30;;;;;;4906775;29;20036;-88
2022/03/23 09:02:51;;;;;;;20.88;15.63;;;11.60;99.20;;;;;;4899093;29;20052;-87
2022/03/23 09:05:19;;;;;;;23.20;15.25;;;11.70;99.10;;;;;;4894440;29;20042;-89
2022/03/23 09:07:45;;;;;;;26.08;16.98;;;11.70;99.10;;;;;;4896693;29;20160;-88
2022/03/23 09:10:13;;;;;;;24.38;17.15;;;11.80;98.80;;;;;;4902688;29;20097;-89
2022/03/23 09:12:40;;;;;;;25.52;17.10;;;12.00;98.60;;;;;;4882686;29;20469;-91
2022/03/23 09:15:08;;;;;;;25.30;17.60;;;12.10;98.60;;;;;;4899438;29;20076;-88
2022/03/23 09:17:34;;;;;;;29.65;18.85;;;12.20;98.60;;;;;;4885208;29;20033;-91
2022/03/23 09:20:02;;;;;;;24.30;16.95;;;12.20;98.20;;;;;;4885541;29;20072;-91
2022/03/23 09:22:28;;;;;;;29.23;19.70;;;12.30;98.20;;;;;;4884839;29;20033;-90
2022/03/23 09:24:54;;;;;;;26.48;18.05;;;12.50;98.10;;;;;;4883895;29;20051;-88
2022/03/23 09:27:20;;;;;;;22.38;17.20;;;12.50;98.00;;;;;;4883929;29;20036;-91
2022/03/23 09:29:46;;;;;;;23.77;16.85;;;12.60;98.00;;;;;;4883882;29;20037;-88
2022/03/23 09:32:12;;;;;;;27.45;18.08;;;12.70;97.80;;;;;;4905399;29;20039;-87
2022/03/23 09:34:39;;;;;;;25.95;19.00;;;12.90;97.70;;;;;;4892081;29;20444;-90
2022/03/23 09:39:51;;;;;;;27.45;17.10;;;13.20;97.00;;;;;;4914709;29;20054;-90
2022/03/23 09:42:20;;;;;;;23.10;16.08;;;13.30;96.90;;;;;;4912064;29;20029;-89
2022/03/23 09:44:47;;;;;;;27.17;17.58;;;13.50;96.70;;;;;;4886899;29;20419;-90
2022/03/23 09:47:14;;;;;;;21.83;16.70;;;13.60;96.60;;;;;;4902902;29;20499;-89
2022/03/23 09:49:39;;;;;;;26.85;19.92;;;13.90;97.00;;;;;;4885187;29;20044;-92
2022/03/23 09:52:05;;;;;;;21.77;16.77;;;14.90;96.60;;;;;;4902516;29;20108;-92
2022/03/23 09:54:32;;;;;;;21.92;15.48;;;16.50;95.80;;;;;;4902405;29;20136;-89
2022/03/23 09:56:57;;;;;;;20.48;16.10;;;18.10;94.90;;;;;;4888129;29;20044;-91
2022/03/23 09:59:23;;;;;;;20.08;15.30;;;19.40;93.60;;;;;;4911205;29;20423;-88
2022/03/23 10:01:51;;;;;;;20.45;15.48;;;20.30;92.30;;;;;;4893403;29;20037;-91
2022/03/23 10:04:19;;;;;;;23.27;17.30;;;21.10;91.20;;;;;;4896000;29;20036;-91
2022/03/23 10:07:07;;;;;;;21.08;16.02;;;21.90;89.60;;;;;;4904720;29;20037;-92
2022/03/23 10:09:51;;;;;;;20.13;16.23;;;22.40;87.20;;;;;;4901774;29;20048;-95
2022/03/23 10:12:42;;;;;;;22.90;17.02;;;22.90;84.80;;;;;;4921835;29;20041;-95
2022/03/23 10:15:29;;;;;;;18.67;15.55;;;23.40;81.70;;;;;;4903622;29;20087;-95
2022/03/23 10:18:33;;;;;;;19.95;16.83;;;24.00;80.50;;;;;;4905185;29;20060;-90
2022/03/23 10:20:59;;;;;;;19.70;16.60;;;24.40;77.00;;;;;;4886366;29;20045;-89
2022/03/23 10:23:29;;;;;;;18.90;16.25;;;24.80;75.70;;;;;;4903973;29;20009;-91
2022/03/23 10:26:09;;;;;;;21.42;16.48;;;25.10;75.50;;;;;;4901869;29;20040;-90
2022/03/23 10:28:35;;;;;;;21.48;17.52;;;25.50;73.50;;;;;;4915194;29;20040;-91
2022/03/23 10:31:13;;;;;;;17.40;15.35;;;25.70;71.40;;;;;;4898471;29;20045;-91
2022/03/23 10:33:38;;;;;;;23.58;19.75;;;26.10;71.10;;;;;;4907090;29;20056;-92
2022/03/23 10:36:04;;;;;;;22.70;17.83;;;26.10;67.00;;;;;;4901068;29;20096;-89
2022/03/23 10:38:43;;;;;;;21.60;16.35;;;26.10;66.50;;;;;;4888109;29;20037;-92
2022/03/23 10:41:11;;;;;;;20.65;15.48;;;26.20;65.50;;;;;;4902997;29;20041;-92
2022/03/23 10:43:39;;;;;;;18.50;16.40;;;26.40;65.30;;;;;;4886260;29;20036;-92
2022/03/23 10:46:09;;;;;;;20.88;17.42;;;26.60;65.00;;;;;;4884591;29;20065;-90
2022/03/23 10:48:36;;;;;;;20.42;17.45;;;26.80;63.90;;;;;;4884262;29;20108;-91
2022/03/23 10:51:02;;;;;;;20.13;17.02;;;26.80;62.60;;;;;;4884239;29;20376;-92
2022/03/23 10:53:36;;;;;;;18.58;16.10;;;26.90;62.20;;;;;;4899879;29;20045;-90
2022/03/23 10:56:03;;;;;;;17.83;15.40;;;27.00;61.50;;;;;;4901324;29;20046;-91
2022/03/23 10:58:30;;;;;;;21.70;15.80;;;27.20;60.90;;;;;;4884572;29;20488;-90
2022/03/23 11:00:59;;;;;;;22.40;16.75;;;27.20;60.00;;;;;;4900932;29;20032;-92
2022/03/23 11:03:38;;;;;;;21.30;17.17;;;27.40;59.70;;;;;;4883384;29;20036;-91
2022/03/23 11:06:06;;;;;;;18.52;16.08;;;27.60;59.50;;;;;;4883865;29;20040;-90
2022/03/23 11:08:31;;;;;;;19.10;16.10;;;27.80;58.20;;;;;;4883337;29;20075;-90
2022/03/23 11:16:35;;;;;;;16.23;13.60;;;27.70;57.40;;;;;;4903135;29;20075;-89
2022/03/23 11:19:23;;;;;;;17.13;15.32;;;28.00;57.20;;;;;;4886587;29;20080;-89
2022/03/23 11:22:11;;;;;;;22.95;19.55;;;28.20;56.60;;;;;;4886234;29;20127;-89
2022/03/23 11:24:42;;;;;;;22.15;16.63;;;28.20;55.70;;;;;;4885485;29;20039;-88
2022/03/23 11:27:17;;;;;;;19.67;16.15;;;28.30;55.60;;;;;;4885233;29;20063;-87
2022/03/23 11:29:44;;;;;;;22.05;19.67;;;28.60;55.40;;;;;;4885091;29;20140;-87
2022/03/23 11:32:28;;;;;;;23.50;20.10;;;28.60;54.40;;;;;;4885134;29;20032;-89
2022/03/23 11:34:56;;;;;;;20.00;16.48;;;28.40;54.00;;;;;;4886737;29;20140;-89
2022/03/23 11:37:23;;;;;;;23.13;18.73;;;28.30;55.20;;;;;;4901388;29;20395;-90
2022/03/23 11:39:51;;;;;;;22.15;18.38;;;28.30;54.50;;;;;;4885755;29;20524;-90
2022/03/23 11:42:19;;;;;;;18.00;15.95;;;28.40;54.00;;;;;;4902138;29;20112;-91
2022/03/23 11:44:46;;;;;;;18.38;15.27;;;28.50;53.70;;;;;;4885438;29;20039;-91
2022/03/23 11:47:37;;;;;;;18.08;15.00;;;28.70;54.00;;;;;;4885642;29;20115;-91
2022/03/23 11:50:26;;;;;;;18.95;16.08;;;29.10;53.70;;;;;;4885386;29;20045;-88
2022/03/23 11:53:05;;;;;;;21.27;17.65;;;29.40;54.30;;;;;;4902505;29;20490;-90
2022/03/23 11:55:40;;;;;;;19.23;17.08;;;29.50;53.20;;;;;;4885211;29;20037;-92
2022/03/23 11:58:16;;;;;;;17.15;15.18;;;29.40;52.30;;;;;;4894680;29;20037;-88
2022/03/23 12:00:55;;;;;;;16.83;13.80;;;29.40;52.50;;;;;;4889262;29;20112;-86
2022/03/23 12:03:41;;;;;;;16.67;14.65;;;29.40;54.10;;;;;;4909419;29;20044;-92
2022/03/23 12:06:16;;;;;;;18.02;16.15;;;29.20;53.20;;;;;;4895671;29;20084;-88
2022/03/23 12:08:50;;;;;;;19.80;16.50;;;29.30;52.80;;;;;;4891932;29;20061;-93
2022/03/23 12:11:43;;;;;;;19.38;16.95;;;29.50;52.10;;;;;;4891236;29;20289;-89
2022/03/23 12:14:24;;;;;;;17.77;15.70;;;29.50;51.80;;;;;;4893262;29;20060;-90
2022/03/23 12:16:52;;;;;;;17.13;13.50;;;29.60;51.20;;;;;;4895144;29;20088;-89
2022/03/23 12:19:23;;;;;;;16.58;12.57;;;29.50;50.40;;;;;;4892506;29;20417;-90
2022/03/23 12:22:05;;;;;;;13.98;12.02;;;29.60;50.60;;;;;;4887584;29;20028;-90
2022/03/23 12:24:49;;;;;;;21.05;14.48;;;29.70;49.50;;;;;;4883561;29;20036;-90
2022/03/23 12:27:23;;;;;;;16.85;14.55;;;29.80;48.80;;;;;;4883835;29;20056;-90
2022/03/23 12:29:51;;;;;;;16.25;14.50;;;29.70;49.10;;;;;;4883690;29;20054;-90
2022/03/23 12:32:17;;;;;;;18.00;15.75;;;29.60;50.40;;;;;;4884796;29;20620;-89
2022/03/23 12:34:43;;;;;;;17.58;15.45;;;29.60;50.10;;;;;;4904905;29;20040;-89
2022/03/23 12:37:18;;;;;;;17.27;14.07;;;29.70;50.70;;;;;;4885076;29;20029;-90
2022/03/23 12:39:52;;;;;;;17.52;14.70;;;30.10;50.40;;;;;;4888264;29;20064;-91
2022/03/23 12:42:32;;;;;;;14.95;12.95;;;30.50;51.50;;;;;;4887673;29;20485;-90
2022/03/23 12:45:00;;;;;;;18.67;11.55;;;30.80;50.00;;;;;;4903300;29;20080;-90
2022/03/23 12:47:28;;;;;;;23.48;16.23;;;30.80;49.90;;;;;;4884733;29;20058;-90
2022/03/23 12:58:28;;;;;;;18.10;14.77;;;30.00;49.50;;;;;;4900861;29;20068;-90
2022/03/23 13:00:55;;;;;;;19.00;14.63;;;29.80;50.40;;;;;;4900476;29;20036;-91
2022/03/23 13:03:22;;;;;;;16.48;14.50;;;29.80;49.70;;;;;;4887441;29;20479;-91
2022/03/23 13:05:54;;;;;;;17.92;13.82;;;30.20;49.70;;;;;;4887166;29;20060;-90